sensor_id;sensor_type;location;lat;lon;timestamp;P1;durP1;ratioP1;P2;durP2;ratioP2
29330;SDS011;16331;52.528;13.342;2022-10-12T00:01:37;10.57;;;4.50;;
29330;SDS011;16331;52.528;13.342;2022-10-12T00:04:04;16.97;;;4.67;;
29330;SDS011;16331;52.528;13.342;2022-10-12T00:06:30;13.35;;;3.78;;
29330;SDS011;16331;52.528;13.342;2022-10-12T00:08:56;9.90;;;3.63;;
29330;SDS011;16331;52.528;13.342;2022-10-12T00:11:24;14.93;;;3.75;;
29330;SDS011;16331;52.528;13.342;2022-10-12T00:13:52;11.30;;;3.92;;
29330;SDS011;16331;52.528;13.342;2022-10-12T00:16:19;14.95;;;4.05;;
29330;SDS011;16331;52.528;13.342;2022-10-12T00:18:51;12.77;;;4.35;;
29330;SDS011;16331;52.528;13.342;2022-10-12T00:21:18;19.05;;;5.15;;
29330;SDS011;16331;52.528;13.342;2022-10-12T00:23:45;21.95;;;5.80;;
29330;SDS011;16331;52.528;13.342;2022-10-12T00:26:16;16.17;;;5.80;;
29330;SDS011;16331;52.528;13.342;2022-10-12T00:28:47;24.15;;;6.72;;
29330;SDS011;16331;52.528;13.342;2022-10-12T00:31:18;11.88;;;4.07;;
29330;SDS011;16331;52.528;13.342;2022-10-12T00:33:45;18.02;;;5.55;;
29330;SDS011;16331;52.528;13.342;2022-10-12T00:36:16;20.42;;;5.35;;
29330;SDS011;16331;52.528;13.342;2022-10-12T00:38:46;12.57;;;3.83;;
29330;SDS011;16331;52.528;13.342;2022-10-12T00:41:13;12.15;;;4.80;;
29330;SDS011;16331;52.528;13.342;2022-10-12T00:43:41;19.05;;;4.53;;
29330;SDS011;16331;52.528;13.342;2022-10-12T00:46:17;19.17;;;5.05;;
29330;SDS011;16331;52.528;13.342;2022-10-12T00:48:49;14.07;;;5.78;;
29330;SDS011;16331;52.528;13.342;2022-10-12T00:51:21;19.60;;;7.38;;
29330;SDS011;16331;52.528;13.342;2022-10-12T00:53:49;24.92;;;6.25;;
29330;SDS011;16331;52.528;13.342;2022-10-12T00:56:22;15.70;;;6.35;;
29330;SDS011;16331;52.528;13.342;2022-10-12T00:58:51;14.48;;;5.60;;
29330;SDS011;16331;52.528;13.342;2022-10-12T01:01:19;9.85;;;4.80;;
29330;SDS011;16331;52.528;13.342;2022-10-12T01:03:46;15.02;;;5.57;;
29330;SDS011;16331;52.528;13.342;2022-10-12T01:06:13;14.95;;;5.80;;
29330;SDS011;16331;52.528;13.342;2022-10-12T01:08:39;14.32;;;5.00;;
29330;SDS011;16331;52.528;13.342;2022-10-12T01:11:07;14.63;;;5.47;;
29330;SDS011;16331;52.528;13.342;2022-10-12T01:13:33;15.98;;;5.68;;
29330;SDS011;16331;52.528;13.342;2022-10-12T01:18:49;20.58;;;6.70;;
29330;SDS011;16331;52.528;13.342;2022-10-12T01:21:28;15.75;;;5.72;;
29330;SDS011;16331;52.528;13.342;2022-10-12T01:24:05;22.27;;;7.22;;
29330;SDS011;16331;52.528;13.342;2022-10-12T01:26:36;16.20;;;6.72;;
29330;SDS011;16331;52.528;13.342;2022-10-12T01:34:43;22.35;;;6.32;;
29330;SDS011;16331;52.528;13.342;2022-10-12T01:39:53;15.10;;;5.32;;
29330;SDS011;16331;52.528;13.342;2022-10-12T01:42:31;14.15;;;5.10;;
29330;SDS011;16331;52.528;13.342;2022-10-12T01:47:32;12.55;;;5.35;;
29330;SDS011;16331;52.528;13.342;2022-10-12T01:50:00;12.50;;;4.65;;
29330;SDS011;16331;52.528;13.342;2022-10-12T01:52:28;19.70;;;6.13;;
29330;SDS011;16331;52.528;13.342;2022-10-12T02:00:53;17.75;;;5.20;;
29330;SDS011;16331;52.528;13.342;2022-10-12T02:03:33;14.60;;;5.18;;
29330;SDS011;16331;52.528;13.342;2022-10-12T02:06:20;11.82;;;4.90;;
29330;SDS011;16331;52.528;13.342;2022-10-12T02:08:56;15.23;;;5.50;;
29330;SDS011;16331;52.528;13.342;2022-10-12T02:11:35;22.42;;;6.55;;
29330;SDS011;16331;52.528;13.342;2022-10-12T02:14:08;12.45;;;4.90;;
29330;SDS011;16331;52.528;13.342;2022-10-12T02:16:40;13.38;;;4.93;;
29330;SDS011;16331;52.528;13.342;2022-10-12T02:19:14;24.48;;;6.75;;
29330;SDS011;16331;52.528;13.342;2022-10-12T02:21:46;9.65;;;4.90;;
29330;SDS011;16331;52.528;13.342;2022-10-12T02:24:14;14.55;;;4.85;;
29330;SDS011;16331;52.528;13.342;2022-10-12T02:26:42;20.10;;;5.80;;
29330;SDS011;16331;52.528;13.342;2022-10-12T02:29:13;11.57;;;4.65;;
29330;SDS011;16331;52.528;13.342;2022-10-12T02:34:20;17.60;;;4.20;;
29330;SDS011;16331;52.528;13.342;2022-10-12T02:40:09;17.25;;;3.80;;
29330;SDS011;16331;52.528;13.342;2022-10-12T02:42:52;11.00;;;3.85;;
29330;SDS011;16331;52.528;13.342;2022-10-12T02:45:26;4.75;;;2.75;;
29330;SDS011;16331;52.528;13.342;2022-10-12T02:47:54;12.05;;;3.65;;
29330;SDS011;16331;52.528;13.342;2022-10-12T02:50:23;10.55;;;3.55;;
29330;SDS011;16331;52.528;13.342;2022-10-12T02:52:50;11.10;;;3.17;;
29330;SDS011;16331;52.528;13.342;2022-10-12T02:55:17;10.68;;;3.13;;
29330;SDS011;16331;52.528;13.342;2022-10-12T02:57:44;9.82;;;3.25;;
29330;SDS011;16331;52.528;13.342;2022-10-12T03:00:10;15.60;;;3.30;;
29330;SDS011;16331;52.528;13.342;2022-10-12T03:02:36;16.17;;;3.38;;
29330;SDS011;16331;52.528;13.342;2022-10-12T03:05:03;12.48;;;4.03;;
29330;SDS011;16331;52.528;13.342;2022-10-12T03:07:29;8.02;;;3.00;;
29330;SDS011;16331;52.528;13.342;2022-10-12T03:09:55;10.05;;;3.40;;
29330;SDS011;16331;52.528;13.342;2022-10-12T03:12:21;8.30;;;3.28;;
29330;SDS011;16331;52.528;13.342;2022-10-12T03:14:47;7.25;;;3.10;;
29330;SDS011;16331;52.528;13.342;2022-10-12T03:17:13;14.45;;;3.20;;
29330;SDS011;16331;52.528;13.342;2022-10-12T03:19:39;9.48;;;2.95;;
29330;SDS011;16331;52.528;13.342;2022-10-12T03:22:05;10.23;;;2.95;;
29330;SDS011;16331;52.528;13.342;2022-10-12T03:24:31;7.70;;;3.33;;
29330;SDS011;16331;52.528;13.342;2022-10-12T03:26:57;9.75;;;3.28;;
29330;SDS011;16331;52.528;13.342;2022-10-12T03:29:24;12.20;;;3.20;;
29330;SDS011;16331;52.528;13.342;2022-10-12T03:31:50;9.93;;;3.97;;
29330;SDS011;16331;52.528;13.342;2022-10-12T03:34:16;11.10;;;3.65;;
29330;SDS011;16331;52.528;13.342;2022-10-12T03:36:42;15.77;;;3.53;;
29330;SDS011;16331;52.528;13.342;2022-10-12T03:39:11;7.38;;;3.15;;
29330;SDS011;16331;52.528;13.342;2022-10-12T03:41:37;9.52;;;3.75;;
29330;SDS011;16331;52.528;13.342;2022-10-12T03:44:03;12.85;;;3.97;;
29330;SDS011;16331;52.528;13.342;2022-10-12T03:46:29;10.18;;;3.50;;
29330;SDS011;16331;52.528;13.342;2022-10-12T03:48:55;12.32;;;4.38;;
29330;SDS011;16331;52.528;13.342;2022-10-12T03:51:22;7.63;;;3.50;;
29330;SDS011;16331;52.528;13.342;2022-10-12T03:53:48;11.70;;;4.20;;
29330;SDS011;16331;52.528;13.342;2022-10-12T03:56:15;11.75;;;4.53;;
29330;SDS011;16331;52.528;13.342;2022-10-12T03:58:41;8.07;;;3.38;;
29330;SDS011;16331;52.528;13.342;2022-10-12T04:01:07;11.20;;;4.28;;
29330;SDS011;16331;52.528;13.342;2022-10-12T04:03:33;12.85;;;4.15;;
29330;SDS011;16331;52.528;13.342;2022-10-12T04:06:00;14.00;;;3.78;;
29330;SDS011;16331;52.528;13.342;2022-10-12T04:08:26;11.98;;;3.90;;
29330;SDS011;16331;52.528;13.342;2022-10-12T04:10:52;12.00;;;3.95;;
29330;SDS011;16331;52.528;13.342;2022-10-12T04:13:19;14.90;;;4.85;;
29330;SDS011;16331;52.528;13.342;2022-10-12T04:15:45;12.65;;;4.32;;
29330;SDS011;16331;52.528;13.342;2022-10-12T04:18:11;10.60;;;3.95;;
29330;SDS011;16331;52.528;13.342;2022-10-12T04:20:37;7.80;;;3.90;;
29330;SDS011;16331;52.528;13.342;2022-10-12T04:23:03;6.20;;;3.85;;
29330;SDS011;16331;52.528;13.342;2022-10-12T04:25:29;13.20;;;4.28;;
29330;SDS011;16331;52.528;13.342;2022-10-12T04:27:55;10.15;;;4.18;;
29330;SDS011;16331;52.528;13.342;2022-10-12T04:30:21;12.27;;;4.32;;
29330;SDS011;16331;52.528;13.342;2022-10-12T04:32:47;12.48;;;4.60;;
29330;SDS011;16331;52.528;13.342;2022-10-12T04:35:13;16.05;;;4.65;;
29330;SDS011;16331;52.528;13.342;2022-10-12T04:37:39;9.80;;;4.65;;
29330;SDS011;16331;52.528;13.342;2022-10-12T04:40:06;15.02;;;5.05;;
29330;SDS011;16331;52.528;13.342;2022-10-12T04:42:32;15.85;;;5.32;;
29330;SDS011;16331;52.528;13.342;2022-10-12T04:44:58;13.25;;;4.53;;
29330;SDS011;16331;52.528;13.342;2022-10-12T04:47:24;9.85;;;4.38;;
29330;SDS011;16331;52.528;13.342;2022-10-12T04:49:50;12.23;;;5.35;;
29330;SDS011;16331;52.528;13.342;2022-10-12T04:52:16;12.38;;;4.30;;
29330;SDS011;16331;52.528;13.342;2022-10-12T04:54:42;10.15;;;4.45;;
29330;SDS011;16331;52.528;13.342;2022-10-12T04:57:08;11.93;;;5.03;;
29330;SDS011;16331;52.528;13.342;2022-10-12T04:59:34;15.85;;;5.20;;
29330;SDS011;16331;52.528;13.342;2022-10-12T05:02:00;12.80;;;5.32;;
29330;SDS011;16331;52.528;13.342;2022-10-12T05:04:26;19.63;;;6.78;;
29330;SDS011;16331;52.528;13.342;2022-10-12T05:06:52;13.60;;;6.22;;
29330;SDS011;16331;52.528;13.342;2022-10-12T05:09:18;11.35;;;4.28;;
29330;SDS011;16331;52.528;13.342;2022-10-12T05:11:44;11.45;;;5.82;;
29330;SDS011;16331;52.528;13.342;2022-10-12T05:14:10;10.35;;;4.40;;
29330;SDS011;16331;52.528;13.342;2022-10-12T05:16:36;11.82;;;5.50;;
29330;SDS011;16331;52.528;13.342;2022-10-12T05:19:02;12.60;;;5.60;;
29330;SDS011;16331;52.528;13.342;2022-10-12T05:21:29;15.80;;;5.82;;
29330;SDS011;16331;52.528;13.342;2022-10-12T05:23:55;16.10;;;7.30;;
29330;SDS011;16331;52.528;13.342;2022-10-12T05:26:21;14.85;;;6.10;;
29330;SDS011;16331;52.528;13.342;2022-10-12T05:28:47;16.38;;;6.43;;
29330;SDS011;16331;52.528;13.342;2022-10-12T05:31:13;14.98;;;5.65;;
29330;SDS011;16331;52.528;13.342;2022-10-12T05:33:39;13.50;;;5.70;;
29330;SDS011;16331;52.528;13.342;2022-10-12T05:36:05;15.20;;;6.10;;
29330;SDS011;16331;52.528;13.342;2022-10-12T05:38:32;21.08;;;6.97;;
29330;SDS011;16331;52.528;13.342;2022-10-12T05:40:58;22.75;;;6.65;;
29330;SDS011;16331;52.528;13.342;2022-10-12T05:43:24;15.00;;;5.90;;
29330;SDS011;16331;52.528;13.342;2022-10-12T05:45:50;12.52;;;4.78;;
29330;SDS011;16331;52.528;13.342;2022-10-12T05:48:16;24.45;;;6.13;;
29330;SDS011;16331;52.528;13.342;2022-10-12T05:50:42;15.13;;;6.22;;
29330;SDS011;16331;52.528;13.342;2022-10-12T05:53:08;10.10;;;5.07;;
29330;SDS011;16331;52.528;13.342;2022-10-12T05:55:34;16.58;;;6.07;;
29330;SDS011;16331;52.528;13.342;2022-10-12T05:58:00;12.98;;;5.32;;
29330;SDS011;16331;52.528;13.342;2022-10-12T06:00:26;20.08;;;5.10;;
29330;SDS011;16331;52.528;13.342;2022-10-12T06:02:52;9.43;;;4.38;;
29330;SDS011;16331;52.528;13.342;2022-10-12T06:05:18;16.73;;;4.55;;
29330;SDS011;16331;52.528;13.342;2022-10-12T06:07:44;14.55;;;5.28;;
29330;SDS011;16331;52.528;13.342;2022-10-12T06:10:10;21.70;;;6.32;;
29330;SDS011;16331;52.528;13.342;2022-10-12T06:12:36;15.27;;;4.47;;
29330;SDS011;16331;52.528;13.342;2022-10-12T06:15:03;13.60;;;5.47;;
29330;SDS011;16331;52.528;13.342;2022-10-12T06:17:29;19.55;;;5.93;;
29330;SDS011;16331;52.528;13.342;2022-10-12T06:19:55;16.52;;;6.40;;
29330;SDS011;16331;52.528;13.342;2022-10-12T06:22:22;21.27;;;5.00;;
29330;SDS011;16331;52.528;13.342;2022-10-12T06:24:48;7.50;;;4.53;;
29330;SDS011;16331;52.528;13.342;2022-10-12T06:27:14;12.80;;;4.30;;
29330;SDS011;16331;52.528;13.342;2022-10-12T06:29:43;16.75;;;3.70;;
29330;SDS011;16331;52.528;13.342;2022-10-12T06:32:10;8.32;;;4.28;;
29330;SDS011;16331;52.528;13.342;2022-10-12T06:34:36;11.18;;;4.18;;
29330;SDS011;16331;52.528;13.342;2022-10-12T06:37:02;7.55;;;4.03;;
29330;SDS011;16331;52.528;13.342;2022-10-12T06:39:28;13.20;;;3.92;;
29330;SDS011;16331;52.528;13.342;2022-10-12T06:41:54;22.42;;;4.32;;
29330;SDS011;16331;52.528;13.342;2022-10-12T06:44:20;9.18;;;4.38;;
29330;SDS011;16331;52.528;13.342;2022-10-12T06:46:46;8.80;;;4.13;;
29330;SDS011;16331;52.528;13.342;2022-10-12T06:49:13;12.35;;;4.78;;
29330;SDS011;16331;52.528;13.342;2022-10-12T06:51:42;10.60;;;4.00;;
29330;SDS011;16331;52.528;13.342;2022-10-12T06:54:09;6.55;;;3.53;;
29330;SDS011;16331;52.528;13.342;2022-10-12T06:56:35;17.10;;;4.65;;
29330;SDS011;16331;52.528;13.342;2022-10-12T06:59:03;14.90;;;4.22;;
29330;SDS011;16331;52.528;13.342;2022-10-12T07:01:29;13.32;;;4.15;;
29330;SDS011;16331;52.528;13.342;2022-10-12T07:03:56;9.63;;;3.78;;
29330;SDS011;16331;52.528;13.342;2022-10-12T07:06:22;16.30;;;5.43;;
29330;SDS011;16331;52.528;13.342;2022-10-12T07:08:48;13.88;;;4.70;;
29330;SDS011;16331;52.528;13.342;2022-10-12T07:11:17;15.38;;;4.03;;
29330;SDS011;16331;52.528;13.342;2022-10-12T07:13:43;16.48;;;4.40;;
29330;SDS011;16331;52.528;13.342;2022-10-12T07:16:09;10.98;;;4.03;;
29330;SDS011;16331;52.528;13.342;2022-10-12T07:18:35;9.75;;;3.88;;
29330;SDS011;16331;52.528;13.342;2022-10-12T07:21:04;16.67;;;4.28;;
29330;SDS011;16331;52.528;13.342;2022-10-12T07:23:30;11.93;;;4.22;;
29330;SDS011;16331;52.528;13.342;2022-10-12T07:25:57;9.35;;;3.63;;
29330;SDS011;16331;52.528;13.342;2022-10-12T07:28:23;13.63;;;3.80;;
29330;SDS011;16331;52.528;13.342;2022-10-12T07:30:50;10.48;;;3.05;;
29330;SDS011;16331;52.528;13.342;2022-10-12T07:33:16;5.03;;;2.63;;
29330;SDS011;16331;52.528;13.342;2022-10-12T07:35:42;12.07;;;3.15;;
29330;SDS011;16331;52.528;13.342;2022-10-12T07:38:16;13.05;;;3.72;;
29330;SDS011;16331;52.528;13.342;2022-10-12T07:40:42;8.57;;;2.88;;
29330;SDS011;16331;52.528;13.342;2022-10-12T07:43:08;10.90;;;4.03;;
29330;SDS011;16331;52.528;13.342;2022-10-12T07:45:34;15.23;;;3.88;;
29330;SDS011;16331;52.528;13.342;2022-10-12T07:48:00;12.07;;;3.15;;
29330;SDS011;16331;52.528;13.342;2022-10-12T07:50:26;8.10;;;3.63;;
29330;SDS011;16331;52.528;13.342;2022-10-12T07:52:52;5.28;;;2.65;;
29330;SDS011;16331;52.528;13.342;2022-10-12T07:55:18;7.40;;;3.25;;
29330;SDS011;16331;52.528;13.342;2022-10-12T07:57:44;13.60;;;3.50;;
29330;SDS011;16331;52.528;13.342;2022-10-12T08:00:11;13.10;;;3.42;;
29330;SDS011;16331;52.528;13.342;2022-10-12T08:02:37;8.30;;;3.63;;
29330;SDS011;16331;52.528;13.342;2022-10-12T08:05:03;15.20;;;3.95;;
29330;SDS011;16331;52.528;13.342;2022-10-12T08:07:29;17.45;;;3.53;;
29330;SDS011;16331;52.528;13.342;2022-10-12T08:09:57;15.18;;;3.80;;
29330;SDS011;16331;52.528;13.342;2022-10-12T08:12:23;10.98;;;3.03;;
29330;SDS011;16331;52.528;13.342;2022-10-12T08:14:49;14.25;;;3.58;;
29330;SDS011;16331;52.528;13.342;2022-10-12T08:17:15;15.35;;;4.28;;
29330;SDS011;16331;52.528;13.342;2022-10-12T08:19:41;9.02;;;3.45;;
29330;SDS011;16331;52.528;13.342;2022-10-12T08:22:07;6.43;;;2.63;;
29330;SDS011;16331;52.528;13.342;2022-10-12T08:24:35;13.15;;;3.47;;
29330;SDS011;16331;52.528;13.342;2022-10-12T08:27:01;14.70;;;3.40;;
29330;SDS011;16331;52.528;13.342;2022-10-12T08:29:28;9.90;;;3.65;;
29330;SDS011;16331;52.528;13.342;2022-10-12T08:31:54;10.70;;;3.13;;
29330;SDS011;16331;52.528;13.342;2022-10-12T08:34:20;12.60;;;2.88;;
29330;SDS011;16331;52.528;13.342;2022-10-12T08:36:46;7.68;;;2.13;;
29330;SDS011;16331;52.528;13.342;2022-10-12T08:39:12;6.85;;;1.75;;
29330;SDS011;16331;52.528;13.342;2022-10-12T08:41:56;9.57;;;1.77;;
29330;SDS011;16331;52.528;13.342;2022-10-12T08:47:41;11.32;;;2.25;;
29330;SDS011;16331;52.528;13.342;2022-10-12T08:50:32;13.93;;;3.00;;
29330;SDS011;16331;52.528;13.342;2022-10-12T08:55:38;6.65;;;1.90;;
29330;SDS011;16331;52.528;13.342;2022-10-12T08:58:15;6.30;;;1.70;;
29330;SDS011;16331;52.528;13.342;2022-10-12T09:00:45;7.97;;;2.05;;
29330;SDS011;16331;52.528;13.342;2022-10-12T09:03:32;6.63;;;2.00;;
29330;SDS011;16331;52.528;13.342;2022-10-12T09:06:13;12.90;;;2.10;;
29330;SDS011;16331;52.528;13.342;2022-10-12T09:08:54;15.45;;;2.88;;
29330;SDS011;16331;52.528;13.342;2022-10-12T09:11:47;13.00;;;2.55;;
29330;SDS011;16331;52.528;13.342;2022-10-12T09:14:34;13.90;;;2.08;;
29330;SDS011;16331;52.528;13.342;2022-10-12T09:17:08;7.88;;;1.92;;
29330;SDS011;16331;52.528;13.342;2022-10-12T09:20:01;2.83;;;1.48;;
29330;SDS011;16331;52.528;13.342;2022-10-12T09:22:32;6.07;;;1.42;;
29330;SDS011;16331;52.528;13.342;2022-10-12T09:24:59;8.30;;;1.85;;
29330;SDS011;16331;52.528;13.342;2022-10-12T09:27:36;9.63;;;1.80;;
29330;SDS011;16331;52.528;13.342;2022-10-12T09:30:02;7.32;;;1.40;;
29330;SDS011;16331;52.528;13.342;2022-10-12T09:35:23;6.07;;;1.75;;
29330;SDS011;16331;52.528;13.342;2022-10-12T09:37:49;8.85;;;1.60;;
29330;SDS011;16331;52.528;13.342;2022-10-12T09:40:21;6.35;;;1.95;;
29330;SDS011;16331;52.528;13.342;2022-10-12T09:42:54;5.00;;;1.70;;
29330;SDS011;16331;52.528;13.342;2022-10-12T09:45:27;4.50;;;1.35;;
29330;SDS011;16331;52.528;13.342;2022-10-12T09:48:09;4.35;;;1.52;;
29330;SDS011;16331;52.528;13.342;2022-10-12T09:50:56;2.47;;;1.15;;
29330;SDS011;16331;52.528;13.342;2022-10-12T09:53:30;7.28;;;1.58;;
29330;SDS011;16331;52.528;13.342;2022-10-12T10:01:19;8.15;;;1.63;;
29330;SDS011;16331;52.528;13.342;2022-10-12T10:03:49;13.20;;;1.55;;
29330;SDS011;16331;52.528;13.342;2022-10-12T10:06:36;3.47;;;1.08;;
29330;SDS011;16331;52.528;13.342;2022-10-12T10:09:05;6.95;;;1.80;;
29330;SDS011;16331;52.528;13.342;2022-10-12T10:14:48;3.67;;;1.23;;
29330;SDS011;16331;52.528;13.342;2022-10-12T10:17:17;9.60;;;1.85;;
29330;SDS011;16331;52.528;13.342;2022-10-12T10:19:50;15.02;;;1.40;;
29330;SDS011;16331;52.528;13.342;2022-10-12T10:22:16;8.25;;;1.60;;
29330;SDS011;16331;52.528;13.342;2022-10-12T10:24:48;7.30;;;2.40;;
29330;SDS011;16331;52.528;13.342;2022-10-12T10:27:34;7.88;;;1.52;;
29330;SDS011;16331;52.528;13.342;2022-10-12T10:32:45;9.05;;;1.92;;
29330;SDS011;16331;52.528;13.342;2022-10-12T10:37:42;6.28;;;1.85;;
29330;SDS011;16331;52.528;13.342;2022-10-12T10:40:16;5.07;;;1.27;;
29330;SDS011;16331;52.528;13.342;2022-10-12T10:42:50;4.32;;;0.85;;
29330;SDS011;16331;52.528;13.342;2022-10-12T10:45:29;4.47;;;0.60;;
29330;SDS011;16331;52.528;13.342;2022-10-12T10:48:07;5.10;;;0.73;;
29330;SDS011;16331;52.528;13.342;2022-10-12T10:50:39;7.65;;;1.40;;
29330;SDS011;16331;52.528;13.342;2022-10-12T10:55:59;3.78;;;1.00;;
29330;SDS011;16331;52.528;13.342;2022-10-12T10:58:36;6.43;;;0.90;;
29330;SDS011;16331;52.528;13.342;2022-10-12T11:01:20;8.30;;;1.23;;
29330;SDS011;16331;52.528;13.342;2022-10-12T11:06:36;1.95;;;0.60;;
29330;SDS011;16331;52.528;13.342;2022-10-12T11:09:11;6.55;;;0.80;;
29330;SDS011;16331;52.528;13.342;2022-10-12T11:11:42;9.57;;;0.80;;
29330;SDS011;16331;52.528;13.342;2022-10-12T11:14:18;13.90;;;1.27;;
29330;SDS011;16331;52.528;13.342;2022-10-12T11:16:54;5.95;;;1.27;;
29330;SDS011;16331;52.528;13.342;2022-10-12T11:19:41;5.93;;;1.00;;
29330;SDS011;16331;52.528;13.342;2022-10-12T11:22:24;4.78;;;1.42;;
29330;SDS011;16331;52.528;13.342;2022-10-12T11:25:07;3.65;;;0.80;;
29330;SDS011;16331;52.528;13.342;2022-10-12T11:27:51;5.20;;;1.10;;
29330;SDS011;16331;52.528;13.342;2022-10-12T11:30:18;2.40;;;0.60;;
29330;SDS011;16331;52.528;13.342;2022-10-12T11:32:47;2.90;;;0.70;;
29330;SDS011;16331;52.528;13.342;2022-10-12T11:35:26;5.53;;;0.80;;
29330;SDS011;16331;52.528;13.342;2022-10-12T11:37:59;2.63;;;0.75;;
29330;SDS011;16331;52.528;13.342;2022-10-12T11:43:21;3.63;;;1.52;;
29330;SDS011;16331;52.528;13.342;2022-10-12T11:45:55;5.28;;;1.25;;
29330;SDS011;16331;52.528;13.342;2022-10-12T11:48:29;2.10;;;0.70;;
29330;SDS011;16331;52.528;13.342;2022-10-12T11:51:02;7.63;;;1.30;;
29330;SDS011;16331;52.528;13.342;2022-10-12T11:53:33;6.15;;;1.15;;
29330;SDS011;16331;52.528;13.342;2022-10-12T11:56:11;4.72;;;0.80;;
29330;SDS011;16331;52.528;13.342;2022-10-12T11:58:46;8.43;;;0.85;;
29330;SDS011;16331;52.528;13.342;2022-10-12T12:01:33;1.60;;;0.75;;
29330;SDS011;16331;52.528;13.342;2022-10-12T12:06:47;5.28;;;1.38;;
29330;SDS011;16331;52.528;13.342;2022-10-12T12:09:18;3.70;;;1.20;;
29330;SDS011;16331;52.528;13.342;2022-10-12T12:12:06;4.38;;;0.73;;
29330;SDS011;16331;52.528;13.342;2022-10-12T12:14:43;6.05;;;0.70;;
29330;SDS011;16331;52.528;13.342;2022-10-12T12:17:23;3.53;;;0.88;;
29330;SDS011;16331;52.528;13.342;2022-10-12T12:22:25;6.80;;;0.80;;
29330;SDS011;16331;52.528;13.342;2022-10-12T12:30:59;7.68;;;1.30;;
29330;SDS011;16331;52.528;13.342;2022-10-12T12:33:35;9.60;;;1.42;;
29330;SDS011;16331;52.528;13.342;2022-10-12T12:38:36;9.68;;;2.00;;
29330;SDS011;16331;52.528;13.342;2022-10-12T12:43:55;5.78;;;1.23;;
29330;SDS011;16331;52.528;13.342;2022-10-12T12:47:13;7.82;;;0.70;;
29330;SDS011;16331;52.528;13.342;2022-10-12T12:49:23;8.27;;;1.13;;
29330;SDS011;16331;52.528;13.342;2022-10-12T12:52:03;4.57;;;0.77;;
29330;SDS011;16331;52.528;13.342;2022-10-12T12:54:35;6.00;;;1.38;;
29330;SDS011;16331;52.528;13.342;2022-10-12T13:00:00;3.42;;;0.98;;
29330;SDS011;16331;52.528;13.342;2022-10-12T13:19:31;8.27;;;2.15;;
29330;SDS011;16331;52.528;13.342;2022-10-12T13:22:01;3.55;;;1.10;;
29330;SDS011;16331;52.528;13.342;2022-10-12T13:24:45;6.50;;;1.55;;
29330;SDS011;16331;52.528;13.342;2022-10-12T13:27:23;9.77;;;2.38;;
29330;SDS011;16331;52.528;13.342;2022-10-12T13:30:07;8.30;;;2.40;;
29330;SDS011;16331;52.528;13.342;2022-10-12T13:32:49;5.28;;;1.52;;
29330;SDS011;16331;52.528;13.342;2022-10-12T13:38:20;3.47;;;0.88;;
29330;SDS011;16331;52.528;13.342;2022-10-12T13:43:43;2.38;;;0.80;;
29330;SDS011;16331;52.528;13.342;2022-10-12T13:51:56;5.45;;;1.02;;
29330;SDS011;16331;52.528;13.342;2022-10-12T13:54:38;4.25;;;0.80;;
29330;SDS011;16331;52.528;13.342;2022-10-12T13:57:27;7.55;;;1.48;;
29330;SDS011;16331;52.528;13.342;2022-10-12T13:59:57;7.35;;;0.90;;
29330;SDS011;16331;52.528;13.342;2022-10-12T14:02:28;2.33;;;0.82;;
29330;SDS011;16331;52.528;13.342;2022-10-12T14:04:57;7.80;;;0.82;;
29330;SDS011;16331;52.528;13.342;2022-10-12T14:07:27;7.15;;;1.23;;
29330;SDS011;16331;52.528;13.342;2022-10-12T14:10:05;8.35;;;1.88;;
29330;SDS011;16331;52.528;13.342;2022-10-12T14:12:39;11.27;;;1.00;;
29330;SDS011;16331;52.528;13.342;2022-10-12T14:15:09;3.58;;;1.33;;
29330;SDS011;16331;52.528;13.342;2022-10-12T14:17:45;5.35;;;1.02;;
29330;SDS011;16331;52.528;13.342;2022-10-12T14:20:23;6.57;;;1.20;;
29330;SDS011;16331;52.528;13.342;2022-10-12T14:22:57;1.40;;;0.60;;
29330;SDS011;16331;52.528;13.342;2022-10-12T14:25:27;7.18;;;1.05;;
29330;SDS011;16331;52.528;13.342;2022-10-12T14:27:59;6.25;;;1.75;;
29330;SDS011;16331;52.528;13.342;2022-10-12T14:35:46;6.13;;;1.00;;
29330;SDS011;16331;52.528;13.342;2022-10-12T14:38:33;3.78;;;0.85;;
29330;SDS011;16331;52.528;13.342;2022-10-12T14:44:11;9.15;;;1.10;;
29330;SDS011;16331;52.528;13.342;2022-10-12T14:49:15;3.30;;;1.10;;
29330;SDS011;16331;52.528;13.342;2022-10-12T14:51:44;4.97;;;1.00;;
29330;SDS011;16331;52.528;13.342;2022-10-12T14:54:17;6.97;;;1.65;;
29330;SDS011;16331;52.528;13.342;2022-10-12T14:56:44;4.13;;;0.90;;
29330;SDS011;16331;52.528;13.342;2022-10-12T14:59:10;2.08;;;1.10;;
29330;SDS011;16331;52.528;13.342;2022-10-12T15:01:36;9.60;;;1.23;;
29330;SDS011;16331;52.528;13.342;2022-10-12T15:04:05;5.35;;;0.75;;
29330;SDS011;16331;52.528;13.342;2022-10-12T15:06:31;5.13;;;1.27;;
29330;SDS011;16331;52.528;13.342;2022-10-12T15:08:57;8.43;;;1.35;;
29330;SDS011;16331;52.528;13.342;2022-10-12T15:11:23;7.75;;;1.02;;
29330;SDS011;16331;52.528;13.342;2022-10-12T15:13:49;2.47;;;1.00;;
29330;SDS011;16331;52.528;13.342;2022-10-12T15:16:24;3.80;;;0.90;;
29330;SDS011;16331;52.528;13.342;2022-10-12T15:18:51;4.10;;;1.10;;
29330;SDS011;16331;52.528;13.342;2022-10-12T15:21:18;7.88;;;1.13;;
29330;SDS011;16331;52.528;13.342;2022-10-12T15:23:44;3.63;;;1.38;;
29330;SDS011;16331;52.528;13.342;2022-10-12T15:26:12;2.22;;;0.80;;
29330;SDS011;16331;52.528;13.342;2022-10-12T15:28:40;2.15;;;0.85;;
29330;SDS011;16331;52.528;13.342;2022-10-12T15:31:10;5.68;;;0.90;;
29330;SDS011;16331;52.528;13.342;2022-10-12T15:33:38;6.20;;;1.13;;
29330;SDS011;16331;52.528;13.342;2022-10-12T15:36:06;1.35;;;0.68;;
29330;SDS011;16331;52.528;13.342;2022-10-12T15:38:36;2.13;;;0.80;;
29330;SDS011;16331;52.528;13.342;2022-10-12T15:41:15;5.28;;;1.17;;
29330;SDS011;16331;52.528;13.342;2022-10-12T15:43:42;1.88;;;1.02;;
29330;SDS011;16331;52.528;13.342;2022-10-12T15:46:09;8.98;;;1.42;;
29330;SDS011;16331;52.528;13.342;2022-10-12T15:48:36;11.15;;;1.33;;
29330;SDS011;16331;52.528;13.342;2022-10-12T15:51:05;5.20;;;1.45;;
29330;SDS011;16331;52.528;13.342;2022-10-12T15:53:39;6.32;;;1.63;;
29330;SDS011;16331;52.528;13.342;2022-10-12T15:56:06;12.18;;;1.55;;
29330;SDS011;16331;52.528;13.342;2022-10-12T15:58:37;6.07;;;1.63;;
29330;SDS011;16331;52.528;13.342;2022-10-12T16:01:03;6.53;;;1.40;;
29330;SDS011;16331;52.528;13.342;2022-10-12T16:03:30;3.55;;;1.38;;
29330;SDS011;16331;52.528;13.342;2022-10-12T16:05:56;7.82;;;1.50;;
29330;SDS011;16331;52.528;13.342;2022-10-12T16:08:22;9.88;;;1.40;;
29330;SDS011;16331;52.528;13.342;2022-10-12T16:10:49;8.70;;;2.03;;
29330;SDS011;16331;52.528;13.342;2022-10-12T16:13:18;6.50;;;1.90;;
29330;SDS011;16331;52.528;13.342;2022-10-12T16:15:44;6.43;;;1.33;;
29330;SDS011;16331;52.528;13.342;2022-10-12T16:18:10;4.50;;;1.65;;
29330;SDS011;16331;52.528;13.342;2022-10-12T16:20:39;6.93;;;1.13;;
29330;SDS011;16331;52.528;13.342;2022-10-12T16:23:07;5.07;;;1.38;;
29330;SDS011;16331;52.528;13.342;2022-10-12T16:25:44;3.28;;;1.33;;
29330;SDS011;16331;52.528;13.342;2022-10-12T16:28:10;11.80;;;2.20;;
29330;SDS011;16331;52.528;13.342;2022-10-12T16:30:37;12.55;;;2.97;;
29330;SDS011;16331;52.528;13.342;2022-10-12T16:33:04;10.02;;;1.50;;
29330;SDS011;16331;52.528;13.342;2022-10-12T16:35:31;11.85;;;2.90;;
29330;SDS011;16331;52.528;13.342;2022-10-12T16:37:57;8.15;;;2.35;;
29330;SDS011;16331;52.528;13.342;2022-10-12T16:40:23;5.93;;;1.88;;